Time;durP1;ratioP1;P1;durP2;ratioP2;P2;SDS_P1;SDS_P2;PMS_P1;PMS_P2;Temp;Humidity;BMP_temperature;BMP_pressure;BME280_temperature;BME280_humidity;BME280_pressure;Samples;Min_cycle;Max_cycle;Signal;HPM_P1;HPM_P2
2021/07/31 00:41:31;;;;;;;9.77;8.97;;;18.20;99.90;;;;;;5927283;23;20715;-91
2021/07/31 00:43:58;;;;;;;9.47;8.67;;;18.20;99.90;;;;;;4913719;29;20719;-94
2021/07/31 00:46:26;;;;;;;8.93;8.23;;;18.30;99.90;;;;;;4918892;29;21501;-93
2021/07/31 00:48:53;;;;;;;9.67;8.83;;;18.40;99.90;;;;;;4907563;29;20633;-93
2021/07/31 00:51:20;;;;;;;11.70;8.87;;;18.40;99.90;;;;;;4914539;29;20971;-95
2021/07/31 00:53:49;;;;;;;9.53;8.63;;;18.40;99.90;;;;;;4908519;29;20975;-94
2021/07/31 00:56:16;;;;;;;10.20;9.20;;;18.50;99.90;;;;;;4905964;29;20679;-94
2021/07/31 00:58:44;;;;;;;8.63;8.03;;;18.50;99.90;;;;;;4907181;29;20804;-94
2021/07/31 01:01:11;;;;;;;9.93;9.17;;;18.50;99.90;;;;;;4910184;29;21007;-94
2021/07/31 01:03:40;;;;;;;8.97;8.17;;;18.50;99.90;;;;;;4907559;29;20640;-94
2021/07/31 01:06:07;;;;;;;9.10;8.27;;;18.60;99.90;;;;;;4912060;29;21230;-95
2021/07/31 01:08:33;;;;;;;9.43;8.63;;;18.60;99.90;;;;;;4910553;29;20640;-94
2021/07/31 01:11:01;;;;;;;9.20;8.40;;;18.60;99.90;;;;;;4909317;29;20624;-93
2021/07/31 01:13:28;;;;;;;7.90;7.20;;;18.60;99.90;;;;;;4908249;29;20637;-94
2021/07/31 01:16:01;;;;;;;9.60;7.70;;;18.70;99.90;;;;;;4907032;29;20655;-94
2021/07/31 01:18:29;;;;;;;8.07;7.13;;;18.60;99.90;;;;;;4908347;29;20645;-95
2021/07/31 01:20:56;;;;;;;7.80;7.20;;;18.60;99.90;;;;;;4907366;29;20695;-95
2021/07/31 01:23:24;;;;;;;6.57;6.07;;;18.70;99.90;;;;;;4903547;29;20636;-94
2021/07/31 01:25:51;;;;;;;7.13;6.50;;;18.70;99.90;;;;;;4910538;29;20651;-94
2021/07/31 01:28:18;;;;;;;6.50;5.90;;;18.70;99.90;;;;;;4912860;29;20652;-95
2021/07/31 01:30:45;;;;;;;6.30;5.73;;;18.70;99.90;;;;;;4915681;29;20671;-95
2021/07/31 01:33:12;;;;;;;6.80;6.10;;;18.70;99.90;;;;;;4915210;29;21157;-94
2021/07/31 01:35:39;;;;;;;7.67;6.97;;;18.70;99.90;;;;;;4910916;29;20660;-94
2021/07/31 01:38:06;;;;;;;7.63;6.97;;;18.70;99.90;;;;;;4914858;29;20608;-95
2021/07/31 01:40:34;;;;;;;7.40;6.67;;;18.70;99.90;;;;;;4913078;29;20631;-95
2021/07/31 01:43:01;;;;;;;7.03;6.33;;;18.60;99.90;;;;;;4913483;29;20655;-95
2021/07/31 01:45:29;;;;;;;7.57;6.27;;;18.60;99.90;;;;;;4914450;29;20659;-95
2021/07/31 01:47:55;;;;;;;6.60;6.17;;;18.60;99.90;;;;;;4912965;29;21001;-94
2021/07/31 01:50:22;;;;;;;6.87;6.30;;;18.70;99.90;;;;;;4912340;29;20636;-95
2021/07/31 01:52:49;;;;;;;6.53;5.93;;;18.70;99.90;;;;;;4911237;29;20732;-95
2021/07/31 01:55:16;;;;;;;5.93;4.90;;;18.70;99.90;;;;;;4913677;29;20682;-95
2021/07/31 01:57:45;;;;;;;5.40;4.90;;;18.60;99.90;;;;;;4913544;29;20643;-95
2021/07/31 02:00:12;;;;;;;4.60;4.20;;;18.70;99.90;;;;;;4915557;29;20636;-95
2021/07/31 02:02:39;;;;;;;4.47;4.07;;;18.60;99.90;;;;;;4914066;29;20884;-96
2021/07/31 02:05:06;;;;;;;6.07;4.17;;;18.60;99.90;;;;;;4917403;29;20636;-95
2021/07/31 02:07:33;;;;;;;3.87;3.40;;;18.60;99.90;;;;;;4911206;29;20644;-96
2021/07/31 02:10:00;;;;;;;3.77;3.47;;;18.50;99.90;;;;;;4910541;29;20648;-96
2021/07/31 02:12:27;;;;;;;3.30;2.93;;;18.50;99.90;;;;;;4915481;29;20643;-96
2021/07/31 02:14:55;;;;;;;4.53;4.10;;;18.40;99.90;;;;;;4913451;29;20682;-96
2021/07/31 02:17:22;;;;;;;4.07;3.70;;;18.40;99.90;;;;;;4911337;29;20640;-96
2021/07/31 02:19:49;;;;;;;4.03;3.23;;;18.30;99.90;;;;;;4912460;29;20651;-96
2021/07/31 02:22:16;;;;;;;7.17;4.50;;;18.30;99.90;;;;;;4911872;29;20660;-94
2021/07/31 02:24:43;;;;;;;4.73;4.17;;;18.30;99.90;;;;;;4914281;29;21050;-94
2021/07/31 02:27:10;;;;;;;6.53;4.27;;;18.20;99.90;;;;;;4910770;29;20654;-94
2021/07/31 02:29:36;;;;;;;5.90;3.50;;;18.20;99.90;;;;;;4909806;29;20659;-95
2021/07/31 02:32:05;;;;;;;4.87;4.43;;;18.10;99.90;;;;;;4911289;29;20823;-95
2021/07/31 02:34:32;;;;;;;5.50;3.73;;;18.10;99.90;;;;;;4910122;29;20651;-93
2021/07/31 02:36:59;;;;;;;7.10;3.77;;;18.00;99.90;;;;;;4914418;29;20675;-94
2021/07/31 02:39:25;;;;;;;7.07;3.73;;;17.90;99.90;;;;;;4910014;29;20651;-95
2021/07/31 02:41:52;;;;;;;4.90;2.93;;;17.90;99.90;;;;;;4912283;29;20674;-93
2021/07/31 02:44:19;;;;;;;5.33;2.90;;;17.80;99.90;;;;;;4912105;29;20636;-95
2021/07/31 02:46:46;;;;;;;5.37;2.23;;;17.70;99.90;;;;;;4916222;29;20685;-95
2021/07/31 02:49:14;;;;;;;7.47;1.80;;;17.70;99.90;;;;;;4913819;29;20659;-94
2021/07/31 02:51:41;;;;;;;3.33;2.27;;;17.60;99.90;;;;;;4911803;29;20635;-95
2021/07/31 02:54:08;;;;;;;9.00;2.70;;;17.50;99.90;;;;;;4913820;29;20624;-94
2021/07/31 02:56:35;;;;;;;4.10;2.17;;;17.50;99.90;;;;;;4911925;29;20659;-94
2021/07/31 02:59:01;;;;;;;4.50;2.67;;;17.40;99.90;;;;;;4915220;29;20631;-94
2021/07/31 03:01:28;;;;;;;3.77;1.97;;;17.40;99.90;;;;;;4912616;29;20663;-95
2021/07/31 03:03:56;;;;;;;2.70;2.07;;;17.30;99.90;;;;;;4911559;29;20628;-95
2021/07/31 03:06:24;;;;;;;3.57;2.27;;;17.20;99.90;;;;;;4910459;29;21019;-95
2021/07/31 03:08:51;;;;;;;5.30;2.93;;;17.10;99.90;;;;;;4911155;29;20679;-94
2021/07/31 03:11:33;;;;;;;6.90;2.63;;;17.00;99.90;;;;;;4921883;29;20719;-96
2021/07/31 03:14:00;;;;;;;7.60;2.17;;;16.90;99.90;;;;;;4934354;29;20667;-96
2021/07/31 03:16:27;;;;;;;2.87;2.10;;;16.80;99.90;;;;;;4912918;29;20646;-95
2021/07/31 03:18:53;;;;;;;3.50;1.97;;;16.70;99.90;;;;;;4911913;29;20640;-96
2021/07/31 03:21:20;;;;;;;4.43;2.30;;;16.60;99.90;;;;;;4916417;29;20667;-95
2021/07/31 03:23:48;;;;;;;3.83;2.13;;;16.50;99.90;;;;;;4917688;29;20640;-95
2021/07/31 03:26:16;;;;;;;4.83;2.17;;;16.40;99.90;;;;;;4921016;29;20738;-96
2021/07/31 03:28:43;;;;;;;3.00;2.10;;;16.30;99.90;;;;;;4917477;29;20731;-96
2021/07/31 03:31:10;;;;;;;3.70;2.10;;;16.20;99.90;;;;;;4915978;29;21453;-95
2021/07/31 03:33:37;;;;;;;3.00;2.03;;;16.10;99.90;;;;;;4918682;29;20704;-96
2021/07/31 03:36:05;;;;;;;2.93;2.23;;;16.00;99.90;;;;;;4918166;29;20680;-96
2021/07/31 03:38:32;;;;;;;2.23;2.03;;;16.00;99.90;;;;;;4917090;29;20654;-95
2021/07/31 03:41:00;;;;;;;3.70;2.43;;;15.90;99.90;;;;;;4914823;29;21243;-96
2021/07/31 03:43:27;;;;;;;2.90;2.40;;;15.80;99.90;;;;;;4916416;29;20674;-96
2021/07/31 03:45:56;;;;;;;6.20;2.00;;;15.70;99.90;;;;;;4925557;29;20640;-96
2021/07/31 03:48:23;;;;;;;8.73;2.00;;;15.60;99.90;;;;;;4931142;29;20643;-96
2021/07/31 03:50:51;;;;;;;4.93;2.23;;;15.60;99.90;;;;;;4924772;29;21379;-96
2021/07/31 03:53:18;;;;;;;4.50;2.33;;;15.50;99.90;;;;;;4916804;29;20723;-96
2021/07/31 03:55:46;;;;;;;3.93;2.33;;;15.40;99.90;;;;;;4914180;29;20664;-96
2021/07/31 04:02:05;;;;;;;3.93;2.23;;;15.30;99.90;;;;;;4923373;29;20660;-96
2021/07/31 04:04:51;;;;;;;2.80;1.73;;;15.20;99.90;;;;;;4938569;29;20612;-96
2021/07/31 04:07:22;;;;;;;5.57;1.87;;;15.10;99.90;;;;;;4932858;29;20671;-96
2021/07/31 04:09:50;;;;;;;4.43;2.93;;;15.10;99.90;;;;;;4931940;29;20667;-96
2021/07/31 04:12:17;;;;;;;2.63;2.40;;;15.00;99.90;;;;;;4921911;29;20715;-95
2021/07/31 04:14:46;;;;;;;3.33;2.77;;;14.90;99.90;;;;;;4914236;29;20637;-96
2021/07/31 04:17:13;;;;;;;4.77;2.90;;;14.90;99.90;;;;;;4910538;29;20644;-96
2021/07/31 04:19:41;;;;;;;2.73;2.53;;;14.90;99.90;;;;;;4911729;29;20713;-96
2021/07/31 04:22:08;;;;;;;2.83;2.63;;;14.90;99.90;;;;;;4914229;29;20656;-96
2021/07/31 04:24:36;;;;;;;4.43;2.80;;;14.90;99.90;;;;;;4915003;29;20655;-96
2021/07/31 04:27:04;;;;;;;3.70;3.07;;;14.80;99.90;;;;;;4914181;29;20636;-95
2021/07/31 04:29:32;;;;;;;3.70;3.40;;;14.80;99.90;;;;;;4912219;29;20680;-96
2021/07/31 04:32:19;;;;;;;5.97;3.40;;;14.80;99.90;;;;;;4930431;29;20723;-96
2021/07/31 04:34:49;;;;;;;5.13;3.13;;;14.80;99.90;;;;;;4933794;29;20613;-96
2021/07/31 04:37:34;;;;;;;5.30;3.60;;;14.80;99.90;;;;;;4935752;29;20639;-96
2021/07/31 04:40:11;;;;;;;4.83;3.57;;;14.80;99.90;;;;;;4934765;29;20700;-96
2021/07/31 04:42:44;;;;;;;5.23;3.10;;;14.80;99.90;;;;;;4936118;29;20670;-96
2021/07/31 04:45:11;;;;;;;5.43;2.80;;;14.80;99.90;;;;;;4918867;29;20647;-94
2021/07/31 04:47:43;;;;;;;6.43;4.00;;;14.80;99.90;;;;;;4909723;29;21084;-95
2021/07/31 04:50:13;;;;;;;7.03;3.40;;;14.90;99.90;;;;;;4910347;29;20703;-95
2021/07/31 04:52:40;;;;;;;4.27;3.50;;;14.90;99.90;;;;;;4910376;29;20632;-94
2021/07/31 04:55:09;;;;;;;5.73;3.03;;;14.90;99.90;;;;;;4918503;29;20644;-95
2021/07/31 04:57:36;;;;;;;4.50;3.00;;;14.90;99.90;;;;;;4918591;29;20728;-96
2021/07/31 05:00:03;;;;;;;3.90;2.83;;;14.90;99.90;;;;;;4918520;29;20787;-95
2021/07/31 05:02:33;;;;;;;5.23;3.40;;;14.90;99.90;;;;;;4909563;29;20710;-94
2021/07/31 05:05:01;;;;;;;5.50;3.23;;;14.90;99.90;;;;;;4923944;29;20636;-95
2021/07/31 05:07:47;;;;;;;4.03;3.03;;;15.00;99.90;;;;;;4928308;29;20667;-95
2021/07/31 05:10:31;;;;;;;3.87;3.30;;;15.00;99.90;;;;;;4921587;29;20696;-95
2021/07/31 05:12:58;;;;;;;5.47;2.90;;;15.10;99.90;;;;;;4925622;28;21217;-94
2021/07/31 05:15:25;;;;;;;3.30;3.00;;;15.20;99.90;;;;;;4912846;29;20711;-94
2021/07/31 05:17:52;;;;;;;5.17;3.00;;;15.20;99.90;;;;;;4914033;29;20711;-95
2021/07/31 05:20:35;;;;;;;5.17;2.90;;;15.20;99.90;;;;;;4917716;29;20731;-94
2021/07/31 05:23:02;;;;;;;5.30;3.40;;;15.40;99.90;;;;;;4916424;29;20683;-93
2021/07/31 05:25:30;;;;;;;5.70;2.90;;;15.40;99.90;;;;;;4927589;29;20660;-96
2021/07/31 05:28:14;;;;;;;3.03;2.73;;;15.50;99.90;;;;;;4933208;29;20655;-96
2021/07/31 05:33:25;;;;;;;5.87;2.43;;;15.70;99.90;;;;;;5451399;23;20681;-95
2021/07/31 05:35:55;;;;;;;4.13;2.83;;;15.80;99.90;;;;;;4975264;28;20744;-96
2021/07/31 05:38:23;;;;;;;5.27;2.90;;;15.90;99.90;;;;;;4981552;28;20641;-96
2021/07/31 05:40:56;;;;;;;3.70;2.77;;;16.00;99.90;;;;;;4976200;28;20625;-96
2021/07/31 05:43:31;;;;;;;5.27;1.97;;;16.10;99.90;;;;;;4981339;28;20680;-96
2021/07/31 05:45:59;;;;;;;4.60;2.27;;;16.20;99.90;;;;;;4976105;28;20728;-96
2021/07/31 05:48:26;;;;;;;4.57;2.50;;;16.30;99.90;;;;;;5093195;23;20668;-95
2021/07/31 05:50:56;;;;;;;2.90;2.37;;;16.40;99.90;;;;;;4971568;28;20673;-95
2021/07/31 05:53:23;;;;;;;5.77;2.10;;;16.50;99.90;;;;;;4968762;28;20637;-96
2021/07/31 05:55:52;;;;;;;5.43;2.30;;;16.60;99.90;;;;;;4989547;28;20615;-96
2021/07/31 05:58:19;;;;;;;4.53;2.10;;;16.70;99.90;;;;;;5118117;23;20695;-96
2021/07/31 06:00:47;;;;;;;2.30;2.10;;;16.80;99.90;;;;;;5026321;28;20699;-95
2021/07/31 06:03:14;;;;;;;4.53;2.60;;;17.00;99.90;;;;;;5003517;28;20689;-95
2021/07/31 06:05:45;;;;;;;8.90;2.03;;;17.10;99.90;;;;;;5037751;28;20628;-96
2021/07/31 06:08:40;;;;;;;5.13;1.67;;;17.20;99.90;;;;;;5126053;23;20671;-96
2021/07/31 06:11:07;;;;;;;2.93;1.53;;;17.40;99.90;;;;;;5009287;28;20656;-94
2021/07/31 06:13:36;;;;;;;8.83;2.37;;;17.50;99.90;;;;;;4997249;28;20632;-96
2021/07/31 06:16:08;;;;;;;3.60;2.10;;;17.70;99.90;;;;;;4999207;28;20731;-95
2021/07/31 06:18:38;;;;;;;3.83;1.97;;;17.80;99.90;;;;;;4986737;28;20668;-96
2021/07/31 06:21:05;;;;;;;7.23;2.80;;;17.90;99.90;;;;;;4978770;28;20708;-96
2021/07/31 06:23:34;;;;;;;3.97;2.40;;;17.90;99.90;;;;;;4977252;28;21253;-96
2021/07/31 06:26:01;;;;;;;5.03;2.90;;;18.00;99.90;;;;;;4972871;28;20641;-95
2021/07/31 06:28:28;;;;;;;3.13;2.10;;;18.00;99.90;;;;;;4967315;28;20852;-95
2021/07/31 06:30:56;;;;;;;5.80;2.60;;;18.10;99.90;;;;;;4973479;28;20629;-95
2021/07/31 06:33:23;;;;;;;5.90;1.90;;;18.20;99.90;;;;;;4975604;28;21362;-95
2021/07/31 06:35:52;;;;;;;3.97;2.30;;;18.30;99.90;;;;;;4974229;28;20633;-94
2021/07/31 06:38:19;;;;;;;2.80;1.67;;;18.40;99.90;;;;;;4975402;28;20660;-95
2021/07/31 06:40:55;;;;;;;6.30;2.50;;;18.50;99.90;;;;;;4976863;28;20681;-95
2021/07/31 06:43:22;;;;;;;4.80;2.10;;;18.50;99.90;;;;;;4975984;28;20663;-95
2021/07/31 06:45:50;;;;;;;4.27;1.63;;;18.60;99.90;;;;;;4973872;28;20669;-96
2021/07/31 06:48:16;;;;;;;2.80;1.30;;;18.70;99.90;;;;;;4975980;28;20661;-95
2021/07/31 06:50:43;;;;;;;5.10;2.70;;;18.70;99.90;;;;;;4971108;28;20637;-96
2021/07/31 06:53:10;;;;;;;5.33;1.67;;;18.80;99.90;;;;;;4977197;28;20630;-96
2021/07/31 06:55:37;;;;;;;2.97;1.57;;;18.90;99.90;;;;;;4975770;28;20639;-96
2021/07/31 06:58:05;;;;;;;3.10;2.20;;;19.00;99.90;;;;;;4975661;28;20653;-94
2021/07/31 07:00:32;;;;;;;6.23;1.50;;;19.00;99.90;;;;;;4974713;28;20637;-96
2021/07/31 07:02:59;;;;;;;4.90;1.90;;;19.20;99.90;;;;;;4974565;28;20754;-96
2021/07/31 07:05:26;;;;;;;5.00;1.93;;;19.20;99.90;;;;;;4979354;28;20748;-96
2021/07/31 07:07:54;;;;;;;5.43;2.00;;;19.40;99.90;;;;;;4975891;28;20672;-96
2021/07/31 07:10:20;;;;;;;6.80;1.90;;;19.40;99.90;;;;;;4973633;28;20625;-96
2021/07/31 07:12:48;;;;;;;4.13;2.17;;;19.50;99.90;;;;;;4975774;28;20638;-96
2021/07/31 07:15:19;;;;;;;2.83;1.43;;;19.60;99.90;;;;;;4977023;28;20713;-96
2021/07/31 07:17:46;;;;;;;3.07;1.60;;;19.70;99.90;;;;;;4984549;28;21230;-96
2021/07/31 07:20:13;;;;;;;4.40;1.97;;;19.80;99.90;;;;;;4976864;28;20721;-96
2021/07/31 07:22:40;;;;;;;1.80;1.10;;;19.80;99.90;;;;;;4978434;28;20661;-96
2021/07/31 07:25:08;;;;;;;9.63;2.23;;;19.90;99.90;;;;;;4977258;28;20634;-96
2021/07/31 07:27:35;;;;;;;5.60;1.90;;;19.90;99.90;;;;;;4982271;28;20649;-96
2021/07/31 07:30:02;;;;;;;4.20;2.00;;;20.00;99.90;;;;;;4987246;28;21219;-96
2021/07/31 07:32:30;;;;;;;5.27;1.63;;;20.10;99.90;;;;;;4980963;28;20737;-96
2021/07/31 07:35:26;;;;;;;2.47;1.80;;;20.20;99.90;;;;;;4985858;28;20721;-96
2021/07/31 07:37:56;;;;;;;5.40;1.80;;;20.30;99.90;;;;;;5464865;23;20790;-96
2021/07/31 08:01:25;;;;;;;5.13;2.10;;;20.80;99.90;;;;;;6054092;23;20563;-96
2021/07/31 09:56:02;;;;;;;7.27;1.67;;;24.00;93.70;;;;;;1759482;23;20983;-94
2021/07/31 09:58:44;;;;;;;1.67;1.40;;;24.10;94.60;;;;;;4977512;28;20634;-96
2021/07/31 10:01:16;;;;;;;3.20;1.30;;;24.30;93.60;;;;;;4982805;28;20613;-96
2021/07/31 10:03:43;;;;;;;3.60;1.47;;;24.40;92.80;;;;;;4993428;28;20767;-96
2021/07/31 10:06:11;;;;;;;3.10;1.57;;;24.30;93.40;;;;;;4990218;28;20640;-96
2021/07/31 10:08:39;;;;;;;5.10;1.70;;;24.50;93.50;;;;;;4988357;28;20728;-96
2021/07/31 10:11:08;;;;;;;3.47;1.30;;;24.60;92.80;;;;;;4984916;28;20742;-95
2021/07/31 10:13:38;;;;;;;4.93;2.60;;;24.80;92.10;;;;;;4996196;28;20663;-96
2021/07/31 10:16:05;;;;;;;3.23;1.50;;;24.80;92.10;;;;;;4986585;28;20738;-96
2021/07/31 10:18:32;;;;;;;3.00;1.70;;;24.90;92.40;;;;;;4994332;28;21277;-96
2021/07/31 10:21:06;;;;;;;2.60;1.43;;;24.80;91.70;;;;;;4983890;28;21190;-96
2021/07/31 10:23:58;;;;;;;4.40;1.50;;;24.90;92.40;;;;;;4995308;28;20653;-96
2021/07/31 10:26:26;;;;;;;2.17;1.20;;;25.00;91.70;;;;;;4982644;28;21196;-95
2021/07/31 10:29:19;;;;;;;4.20;1.57;;;25.20;91.20;;;;;;4995593;28;20663;-96
2021/07/31 10:31:46;;;;;;;1.67;1.50;;;25.40;91.00;;;;;;4979790;28;20662;-96
2021/07/31 10:34:48;;;;;;;3.57;1.73;;;25.40;92.00;;;;;;4985409;28;20759;-96
2021/07/31 10:37:48;;;;;;;4.07;1.40;;;25.30;92.10;;;;;;5007204;28;20700;-96
2021/07/31 10:40:48;;;;;;;1.50;1.10;;;25.40;91.50;;;;;;4991977;28;20685;-96
2021/07/31 10:43:17;;;;;;;5.93;2.10;;;25.40;91.20;;;;;;4997110;28;20652;-96
2021/07/31 10:45:47;;;;;;;2.43;1.20;;;25.60;92.00;;;;;;4993950;28;20657;-96
2021/07/31 10:48:39;;;;;;;2.80;1.50;;;25.70;89.60;;;;;;4994830;28;21216;-96
2021/07/31 10:51:07;;;;;;;6.67;2.00;;;25.90;90.30;;;;;;4979852;28;20720;-96
2021/07/31 10:53:51;;;;;;;2.13;1.30;;;26.30;90.00;;;;;;4997334;28;21152;-96
2021/07/31 10:56:19;;;;;;;1.77;1.43;;;26.60;85.90;;;;;;5008044;28;20631;-96
2021/07/31 10:59:17;;;;;;;2.03;1.50;;;26.90;85.40;;;;;;4998229;28;20621;-96
2021/07/31 11:01:48;;;;;;;2.67;1.53;;;27.20;85.90;;;;;;4994758;28;20638;-96
2021/07/31 11:04:53;;;;;;;3.63;1.10;;;27.40;80.90;;;;;;4974339;28;21225;-96
2021/07/31 11:07:25;;;;;;;3.43;1.37;;;27.90;78.00;;;;;;4985894;28;20691;-96
2021/07/31 11:10:39;;;;;;;2.07;1.13;;;28.20;75.90;;;;;;4999838;28;20651;-96
2021/07/31 11:13:08;;;;;;;4.20;1.37;;;28.40;75.90;;;;;;4939606;29;20627;-96
2021/07/31 11:15:58;;;;;;;8.00;2.20;;;28.80;73.10;;;;;;4942086;29;20656;-96
2021/07/31 11:18:27;;;;;;;1.87;1.13;;;28.90;72.70;;;;;;4980010;28;20631;-96
2021/07/31 11:21:17;;;;;;;3.60;1.57;;;29.30;73.60;;;;;;5007170;28;21172;-96
2021/07/31 11:23:49;;;;;;;2.47;1.30;;;29.40;70.80;;;;;;5000405;28;20679;-96
2021/07/31 11:26:36;;;;;;;3.37;1.60;;;29.80;67.80;;;;;;4993487;28;20732;-96
2021/07/31 11:29:48;;;;;;;2.50;1.53;;;30.00;66.80;;;;;;4997720;28;20648;-96
2021/07/31 11:32:56;;;;;;;4.13;2.00;;;30.10;66.10;;;;;;4998041;28;21246;-96
2021/07/31 11:40:01;;;;;;;2.27;1.57;;;31.00;63.30;;;;;;5005698;28;20635;-96
2021/07/31 13:00:18;;;;;;;2.50;1.50;;;28.50;64.20;;;;;;5306207;23;20655;-96
2021/07/31 13:10:53;;;;;;;2.00;1.80;;;29.20;62.70;;;;;;5005755;28;20661;-96
2021/07/31 13:13:23;;;;;;;3.53;1.73;;;29.60;63.90;;;;;;5001536;28;20628;-96
2021/07/31 15:09:13;;;;;;;5.93;2.20;;;28.80;58.70;;;;;;5053206;23;20685;-96
2021/07/31 16:01:51;;;;;;;2.80;2.03;;;31.50;55.80;;;;;;5037672;28;20677;-96
2021/07/31 16:07:17;;;;;;;3.90;2.17;;;32.10;54.30;;;;;;5027454;28;20618;-96
2021/07/31 16:10:08;;;;;;;2.37;2.07;;;32.80;52.70;;;;;;5045618;28;20669;-96
2021/07/31 16:12:58;;;;;;;3.17;2.20;;;33.00;53.20;;;;;;5056003;28;20643;-96
2021/07/31 16:15:27;;;;;;;2.93;2.63;;;33.30;52.00;;;;;;5040335;28;20628;-96
2021/07/31 16:18:09;;;;;;;4.13;1.97;;;33.40;51.70;;;;;;5030160;28;20642;-96
2021/07/31 16:20:41;;;;;;;3.03;2.10;;;33.60;52.20;;;;;;5030546;28;20596;-96
2021/07/31 16:23:11;;;;;;;3.40;2.17;;;33.80;52.20;;;;;;5027121;28;20651;-96
2021/07/31 16:25:38;;;;;;;2.40;2.00;;;33.50;51.40;;;;;;5024893;28;20631;-96
2021/07/31 16:28:49;;;;;;;8.20;3.57;;;33.10;51.80;;;;;;5022989;28;20632;-96
2021/07/31 16:31:18;;;;;;;7.17;2.13;;;32.30;52.80;;;;;;5012900;28;20739;-96
2021/07/31 16:33:47;;;;;;;3.97;2.33;;;32.10;52.70;;;;;;5024986;28;21172;-96
2021/07/31 16:36:16;;;;;;;4.80;2.90;;;31.60;54.60;;;;;;5034889;28;20645;-96
2021/07/31 16:41:40;;;;;;;3.87;3.20;;;30.90;54.60;;;;;;5036392;28;20635;-96
2021/07/31 16:44:34;;;;;;;2.70;2.13;;;31.00;54.80;;;;;;5035966;28;20731;-96
2021/07/31 16:50:29;;;;;;;7.83;4.30;;;31.70;53.70;;;;;;5013905;28;20733;-96
2021/07/31 16:53:03;;;;;;;4.73;2.73;;;31.70;54.40;;;;;;5010574;28;20632;-96
2021/07/31 17:04:04;;;;;;;3.10;2.03;;;31.20;54.20;;;;;;5079398;23;20679;-96
2021/07/31 17:06:37;;;;;;;2.73;2.00;;;31.20;54.40;;;;;;5012909;28;20609;-96
2021/07/31 17:09:09;;;;;;;4.23;2.33;;;31.00;54.50;;;;;;5025855;28;20660;-96
2021/07/31 17:11:37;;;;;;;3.77;2.60;;;30.60;55.10;;;;;;5044243;23;20739;-96
2021/07/31 17:14:05;;;;;;;3.50;2.53;;;30.20;55.60;;;;;;5017180;28;20620;-96
2021/07/31 17:16:35;;;;;;;3.70;2.20;;;29.70;56.30;;;;;;5019885;28;21013;-96
2021/07/31 17:21:33;;;;;;;3.07;2.03;;;29.30;56.40;;;;;;4944393;29;20655;-96
2021/07/31 17:24:02;;;;;;;3.53;2.10;;;28.80;57.40;;;;;;4943040;29;20624;-96
2021/07/31 17:26:29;;;;;;;3.30;2.40;;;28.20;58.90;;;;;;5017273;23;21017;-96
2021/07/31 17:29:47;;;;;;;2.40;1.73;;;27.80;60.20;;;;;;5000341;28;20610;-96
2021/07/31 17:32:16;;;;;;;3.80;1.97;;;27.40;60.80;;;;;;5015355;28;20715;-96
2021/07/31 17:34:53;;;;;;;2.90;1.80;;;27.00;61.00;;;;;;5007159;28;20748;-96
2021/07/31 17:37:47;;;;;;;4.30;2.20;;;26.60;62.80;;;;;;5022481;28;20659;-96
2021/07/31 17:40:24;;;;;;;2.70;2.10;;;26.20;64.00;;;;;;5025657;28;20620;-96
2021/07/31 17:42:52;;;;;;;2.40;2.20;;;26.00;65.00;;;;;;5023485;28;20631;-96
2021/07/31 17:45:21;;;;;;;4.97;2.63;;;25.70;66.70;;;;;;5007962;28;20691;-96
2021/07/31 17:47:48;;;;;;;4.37;2.80;;;25.50;66.60;;;;;;5002319;28;20658;-93
2021/07/31 17:50:15;;;;;;;4.73;2.33;;;25.20;68.00;;;;;;5001614;28;21170;-93
2021/07/31 17:52:43;;;;;;;5.07;2.70;;;25.00;69.20;;;;;;5000238;28;20616;-94
2021/07/31 17:55:10;;;;;;;4.20;2.37;;;24.80;70.70;;;;;;4997638;28;20647;-90
2021/07/31 17:57:37;;;;;;;5.07;4.67;;;24.50;72.80;;;;;;4992569;28;20999;-90
2021/07/31 18:00:05;;;;;;;6.93;6.33;;;24.30;73.70;;;;;;4998588;28;20652;-94
2021/07/31 18:02:32;;;;;;;7.60;7.13;;;24.10;75.40;;;;;;4997729;28;20641;-94
2021/07/31 18:04:59;;;;;;;5.83;2.47;;;23.80;76.70;;;;;;4994468;28;20711;-93
2021/07/31 18:07:26;;;;;;;6.37;5.87;;;23.70;79.20;;;;;;4998409;28;20654;-95
2021/07/31 18:09:54;;;;;;;3.20;2.07;;;23.40;81.90;;;;;;5004558;28;20634;-96
2021/07/31 18:12:21;;;;;;;4.00;2.80;;;23.20;84.00;;;;;;5005986;28;20636;-95
2021/07/31 18:14:49;;;;;;;4.00;2.10;;;23.10;86.60;;;;;;4997886;28;21177;-94
2021/07/31 18:17:16;;;;;;;3.80;2.13;;;23.00;89.20;;;;;;5001808;28;20707;-94
2021/07/31 18:19:43;;;;;;;2.80;2.10;;;22.80;90.40;;;;;;5004970;28;20662;-91
2021/07/31 18:22:09;;;;;;;2.93;2.20;;;22.80;91.30;;;;;;4999808;28;20607;-93
2021/07/31 18:24:36;;;;;;;3.80;2.07;;;22.70;91.70;;;;;;5003203;28;20653;-94
2021/07/31 18:27:05;;;;;;;4.00;2.47;;;22.60;92.40;;;;;;4998232;28;20659;-92
2021/07/31 18:29:32;;;;;;;3.97;2.23;;;22.40;92.90;;;;;;4996709;28;20687;-92
2021/07/31 18:31:59;;;;;;;2.60;1.70;;;22.30;93.30;;;;;;4998001;28;20708;-93
2021/07/31 18:34:27;;;;;;;4.20;2.40;;;22.30;93.90;;;;;;5006273;28;20620;-92
2021/07/31 18:36:55;;;;;;;4.57;2.50;;;22.20;94.50;;;;;;4999854;28;20647;-93
2021/07/31 18:39:23;;;;;;;4.43;2.70;;;22.10;95.10;;;;;;4997289;28;21168;-92
2021/07/31 18:41:52;;;;;;;4.20;3.07;;;22.10;95.70;;;;;;5006408;28;20629;-91
2021/07/31 18:44:21;;;;;;;3.70;2.20;;;21.90;96.30;;;;;;5018739;28;20669;-92
2021/07/31 18:46:48;;;;;;;5.67;2.23;;;21.90;96.60;;;;;;5007135;28;20664;-92
2021/07/31 18:49:16;;;;;;;4.20;3.07;;;21.80;96.90;;;;;;4995901;28;20636;-93
2021/07/31 18:51:43;;;;;;;3.23;2.43;;;21.70;97.10;;;;;;5006821;28;20635;-91
2021/07/31 18:54:09;;;;;;;6.23;2.00;;;21.60;97.60;;;;;;5001010;28;20723;-91
2021/07/31 18:56:36;;;;;;;2.87;1.80;;;21.50;98.50;;;;;;5003710;28;20656;-93
2021/07/31 18:59:05;;;;;;;3.20;2.70;;;21.30;99.40;;;;;;5001413;28;20628;-91
2021/07/31 19:01:33;;;;;;;4.00;2.40;;;21.30;99.90;;;;;;4999943;28;20624;-92
2021/07/31 19:04:01;;;;;;;3.87;2.60;;;21.20;99.90;;;;;;5003864;28;20739;-93
2021/07/31 19:06:28;;;;;;;2.63;2.33;;;21.10;99.90;;;;;;4996835;28;20666;-92
2021/07/31 19:08:55;;;;;;;2.30;1.90;;;20.90;99.90;;;;;;5002570;28;20635;-93
2021/07/31 19:11:22;;;;;;;4.10;2.23;;;20.90;99.90;;;;;;5000774;28;20640;-93
2021/07/31 19:13:50;;;;;;;7.07;2.50;;;20.70;99.90;;;;;;5000764;28;20650;-93
2021/07/31 19:16:17;;;;;;;6.57;2.13;;;20.70;99.90;;;;;;5005895;28;20702;-93
2021/07/31 19:18:45;;;;;;;2.73;2.30;;;20.60;99.90;;;;;;4999822;28;20632;-93
2021/07/31 19:21:14;;;;;;;3.47;2.50;;;20.40;99.90;;;;;;4998945;28;20615;-94
2021/07/31 19:23:41;;;;;;;6.93;2.40;;;20.40;99.90;;;;;;5001683;28;21407;-94
2021/07/31 19:26:07;;;;;;;5.20;2.57;;;20.20;99.90;;;;;;5000808;28;21049;-93
2021/07/31 19:28:35;;;;;;;5.50;3.30;;;20.10;99.90;;;;;;4998114;28;20629;-93
2021/07/31 19:31:01;;;;;;;7.40;2.60;;;20.00;99.90;;;;;;4993815;28;20640;-92
2021/07/31 19:33:28;;;;;;;4.63;2.23;;;19.90;99.90;;;;;;4996313;28;21175;-92
2021/07/31 19:35:57;;;;;;;5.40;2.80;;;19.80;99.90;;;;;;4998398;28;21097;-90
2021/07/31 19:38:24;;;;;;;4.60;2.57;;;19.80;99.90;;;;;;5002569;28;20717;-91
2021/07/31 19:40:52;;;;;;;5.20;2.30;;;19.70;99.90;;;;;;4997288;28;20643;-91
2021/07/31 19:43:19;;;;;;;5.70;2.40;;;19.60;99.90;;;;;;4997479;28;20657;-90
2021/07/31 19:45:47;;;;;;;3.83;2.37;;;19.50;99.90;;;;;;4997931;28;20639;-92
2021/07/31 19:48:14;;;;;;;7.90;2.27;;;19.40;99.90;;;;;;4996989;28;20634;-90
2021/07/31 19:50:41;;;;;;;3.70;2.30;;;19.30;99.90;;;;;;4997912;28;20796;-91
2021/07/31 19:53:09;;;;;;;3.70;2.90;;;19.30;99.90;;;;;;5001213;28;20671;-90
2021/07/31 19:55:38;;;;;;;3.40;2.57;;;19.20;99.90;;;;;;4996022;28;20667;-92
2021/07/31 19:58:05;;;;;;;5.30;2.27;;;19.20;99.90;;;;;;4998716;28;20636;-92
2021/07/31 20:00:33;;;;;;;7.23;2.60;;;19.10;99.90;;;;;;4998706;28;20724;-92
2021/07/31 20:03:00;;;;;;;4.30;2.10;;;19.00;99.90;;;;;;5000387;28;20663;-91
2021/07/31 20:05:28;;;;;;;2.53;2.27;;;19.00;99.90;;;;;;4998912;28;20735;-91
2021/07/31 20:07:55;;;;;;;4.40;2.80;;;18.90;99.90;;;;;;4995647;28;20623;-91
2021/07/31 20:10:25;;;;;;;3.00;2.70;;;18.80;99.90;;;;;;5001037;28;20636;-91
2021/07/31 20:12:53;;;;;;;3.50;3.20;;;18.80;99.90;;;;;;4993046;28;20656;-92
2021/07/31 20:15:21;;;;;;;3.93;3.37;;;18.80;99.90;;;;;;5000473;28;20636;-91
2021/07/31 20:17:49;;;;;;;4.17;3.40;;;18.70;99.90;;;;;;5002000;28;20968;-91
2021/07/31 20:20:16;;;;;;;6.90;3.37;;;18.70;99.90;;;;;;4999818;28;20714;-92
2021/07/31 20:22:44;;;;;;;3.83;2.80;;;18.60;99.90;;;;;;4996962;28;21079;-91
2021/07/31 20:25:12;;;;;;;5.20;3.00;;;18.60;99.90;;;;;;5000890;28;20713;-91
2021/07/31 20:27:40;;;;;;;7.73;3.23;;;18.60;99.90;;;;;;4992462;28;20748;-91
2021/07/31 20:30:09;;;;;;;7.10;2.83;;;18.50;99.90;;;;;;4996829;28;20629;-91
2021/07/31 20:32:36;;;;;;;3.53;2.93;;;18.50;99.90;;;;;;4995313;28;20645;-90
2021/07/31 20:35:06;;;;;;;4.50;2.50;;;18.40;99.90;;;;;;4997959;28;20727;-91
2021/07/31 20:37:35;;;;;;;9.90;4.03;;;18.40;99.90;;;;;;4997498;28;20661;-91
2021/07/31 20:40:03;;;;;;;4.97;2.80;;;18.30;99.90;;;;;;4993061;28;20646;-91